createdAt,value
2019-04-22T00:01:32.415Z,70.30
2019-04-22T00:04:08.010Z,72.00
2019-04-22T00:06:57.513Z,74.50
2019-04-22T00:09:35.965Z,77.40
2019-04-22T00:12:09.011Z,79.40
2019-04-22T00:14:28.075Z,82.20
2019-04-22T00:17:07.261Z,84.30
2019-04-22T00:19:43.704Z,86.20
2019-04-22T00:22:12.971Z,88.60
2019-04-22T00:24:39.043Z,89.10
2019-04-22T00:27:14.316Z,89.40
2019-04-22T00:32:19.460Z,88.50
2019-04-22T00:34:56.843Z,90.50
2019-04-22T00:37:28.647Z,92.10
2019-04-22T00:39:57.534Z,92.10
2019-04-22T00:42:37.493Z,94.10
2019-04-22T00:45:07.962Z,94.90
2019-04-22T00:47:34.923Z,95.70
2019-04-22T00:52:33.630Z,96.30
2019-04-22T00:55:06.118Z,97.30
2019-04-22T00:57:38.953Z,97.80
2019-04-22T01:00:15.635Z,98.50
2019-04-22T01:02:41.617Z,97.60
2019-04-22T01:05:15.093Z,94.30
2019-04-22T01:07:44.558Z,94.30
2019-04-22T01:10:20.165Z,93.70
2019-04-22T01:12:43.994Z,96.00
2019-04-22T01:15:23.401Z,99.90
2019-04-22T01:17:52.562Z,99.90
2019-04-22T01:20:45.465Z,99.90
2019-04-22T01:22:56.278Z,99.90
2019-04-22T01:25:20.534Z,99.90
2019-04-22T01:27:46.241Z,99.90
2019-04-22T01:30:10.937Z,99.90
2019-04-22T01:32:40.065Z,99.90
2019-04-22T01:35:20.959Z,99.90
2019-04-22T01:37:54.745Z,99.90
2019-04-22T01:40:39.278Z,99.90
2019-04-22T01:43:07.003Z,99.90
2019-04-22T01:45:39.532Z,99.90
2019-04-22T01:48:12.962Z,99.90
2019-04-22T01:50:41.070Z,99.90
2019-04-22T01:53:27.370Z,99.90
2019-04-22T01:55:46.931Z,99.90
2019-04-22T01:58:11.092Z,99.90
2019-04-22T02:00:56.240Z,99.90
2019-04-22T02:03:26.433Z,99.90
2019-04-22T02:05:51.103Z,99.90
2019-04-22T02:08:31.636Z,99.90
2019-04-22T02:11:07.834Z,99.90
2019-04-22T02:13:30.832Z,99.90
2019-04-22T02:15:58.810Z,99.90
2019-04-22T02:18:39.568Z,99.90
2019-04-22T02:21:01.501Z,99.90
2019-04-22T02:26:07.141Z,99.90
2019-04-22T02:44:02.032Z,99.90
2019-04-22T02:51:24.351Z,99.90
2019-04-22T02:56:35.977Z,99.90
2019-04-22T03:04:06.838Z,99.90
2019-04-22T03:06:34.673Z,99.90
2019-04-22T03:16:41.122Z,99.90
2019-04-22T03:21:40.537Z,99.90
2019-04-22T03:24:23.940Z,99.90
2019-04-22T03:29:22.701Z,99.90
2019-04-22T03:42:05.730Z,99.90
2019-04-22T03:49:49.959Z,99.90
2019-04-22T03:57:33.758Z,99.90
2019-04-22T03:59:43.991Z,99.90
2019-04-22T04:02:28.872Z,99.90
2019-04-22T04:04:39.287Z,99.90
2019-04-22T04:17:33.223Z,99.90
2019-04-22T04:20:05.841Z,99.90
2019-04-22T04:22:48.590Z,99.90
2019-04-22T04:25:07.839Z,99.90
2019-04-22T04:27:42.687Z,99.90
2019-04-22T04:30:09.968Z,99.90
2019-04-22T04:32:51.408Z,99.90
2019-04-22T04:37:52.294Z,99.90
2019-04-22T04:40:12.190Z,99.90
2019-04-22T04:42:42.736Z,99.90
2019-04-22T04:47:47.605Z,99.90
2019-04-22T04:53:09.759Z,99.90
2019-04-22T05:05:28.885Z,99.90
2019-04-22T05:07:56.453Z,99.90
2019-04-22T05:10:34.848Z,99.90
2019-04-22T05:12:57.255Z,99.90
2019-04-22T05:15:57.655Z,99.90
2019-04-22T05:18:05.799Z,99.90
2019-04-22T05:23:01.827Z,99.90
2019-04-22T05:25:27.279Z,99.90
2019-04-22T05:27:57.582Z,99.90
2019-04-22T05:30:37.523Z,99.90
2019-04-22T05:33:08.467Z,99.90
2019-04-22T05:35:39.002Z,99.90
2019-04-22T05:38:17.166Z,99.90
2019-04-22T05:40:34.698Z,99.90
2019-04-22T05:43:16.335Z,99.90
2019-04-22T05:45:43.267Z,99.90
2019-04-22T05:48:18.919Z,99.90
2019-04-22T05:50:45.361Z,99.90
2019-04-22T05:53:17.842Z,99.90
2019-04-22T05:58:22.569Z,99.90
2019-04-22T06:03:49.309Z,99.90
2019-04-22T06:06:16.380Z,99.90
2019-04-22T06:08:45.592Z,99.90
2019-04-22T06:11:22.854Z,99.90
2019-04-22T06:13:45.252Z,99.90
2019-04-22T06:16:24.187Z,99.80
2019-04-22T06:18:49.009Z,98.70
2019-04-22T06:21:22.385Z,97.90
2019-04-22T06:23:58.830Z,96.70
2019-04-22T06:26:29.301Z,96.50
2019-04-22T06:28:54.752Z,95.40
2019-04-22T06:31:24.467Z,95.20
2019-04-22T06:34:02.244Z,94.50
2019-04-22T06:36:34.452Z,93.50
2019-04-22T06:38:55.636Z,92.50
2019-04-22T06:41:27.360Z,91.90
2019-04-22T06:44:09.083Z,91.10
2019-04-22T06:46:37.343Z,88.10
2019-04-22T06:49:11.118Z,82.30
2019-04-22T06:51:40.590Z,77.60
2019-04-22T06:54:07.784Z,75.00
2019-04-22T06:56:42.704Z,75.40
2019-04-22T06:59:14.333Z,75.80
2019-04-22T07:01:43.459Z,74.20
2019-04-22T07:04:13.201Z,73.90
2019-04-22T07:06:49.839Z,75.20
2019-04-22T07:09:38.604Z,71.80
2019-04-22T07:11:42.965Z,70.70
2019-04-22T07:14:28.331Z,70.50
2019-04-22T07:16:51.005Z,69.90
2019-04-22T07:19:26.523Z,68.60
2019-04-22T07:21:52.388Z,68.10
2019-04-22T07:26:57.546Z,65.50
2019-04-22T07:29:25.093Z,63.90
2019-04-22T07:32:00.543Z,63.00
2019-04-22T07:34:33.194Z,61.80
2019-04-22T07:37:11.930Z,62.00
2019-04-22T07:39:35.217Z,62.80
2019-04-22T07:42:10.666Z,61.60
2019-04-22T07:44:44.955Z,60.10
2019-04-22T07:47:18.407Z,57.90
2019-04-22T07:49:46.972Z,57.10
2019-04-22T07:52:11.894Z,56.30
2019-04-22T07:54:46.798Z,57.70
2019-04-22T07:57:19.901Z,56.00
2019-04-22T07:59:49.387Z,56.00
2019-04-22T08:02:26.625Z,56.30
2019-04-22T08:05:01.978Z,54.20
2019-04-22T08:07:24.090Z,54.40
2019-04-22T08:10:03.039Z,53.70
2019-04-22T08:12:28.148Z,52.20
2019-04-22T08:15:00.065Z,51.30
2019-04-22T08:20:05.561Z,50.20
2019-04-22T08:22:35.897Z,51.10
2019-04-22T08:25:06.708Z,51.00
2019-04-22T08:27:35.575Z,50.30
2019-04-22T08:32:44.076Z,47.80
2019-04-22T08:35:18.669Z,47.10
2019-04-22T08:40:21.476Z,45.20
2019-04-22T08:45:18.233Z,42.20
2019-04-22T08:47:51.320Z,42.30
2019-04-22T08:50:20.162Z,41.50
2019-04-22T08:52:57.703Z,41.70
2019-04-22T08:55:26.327Z,40.80
2019-04-22T08:58:16.607Z,40.40
2019-04-22T09:00:34.353Z,40.80
2019-04-22T09:03:04.639Z,40.60
2019-04-22T09:06:06.494Z,41.10
2019-04-22T09:08:14.145Z,39.70
2019-04-22T09:10:44.642Z,39.50
2019-04-22T09:13:10.243Z,38.40
2019-04-22T09:15:42.527Z,38.10
2019-04-22T09:18:16.155Z,36.90
2019-04-22T09:20:48.692Z,37.60
2019-04-22T09:23:28.450Z,36.10
2019-04-22T09:25:48.636Z,36.90
2019-04-22T09:28:22.742Z,38.10
2019-04-22T09:31:02.149Z,36.30
2019-04-22T09:33:27.158Z,35.90
2019-04-22T09:36:09.129Z,36.10
2019-04-22T09:38:38.388Z,36.70
2019-04-22T09:41:05.421Z,35.30
2019-04-22T09:43:41.098Z,35.90
2019-04-22T09:46:09.099Z,36.80
2019-04-22T09:51:05.826Z,35.80
2019-04-22T09:53:47.036Z,34.80
2019-04-22T09:56:18.205Z,34.10
2019-04-22T09:58:44.598Z,34.60
2019-04-22T10:01:24.587Z,33.80
2019-04-22T10:03:56.215Z,35.00
2019-04-22T10:06:29.426Z,34.90
2019-04-22T10:16:37.153Z,32.30
2019-04-22T10:19:00.925Z,32.30
2019-04-22T10:24:03.299Z,31.70
2019-04-22T10:29:08.569Z,31.30
2019-04-22T10:31:39.128Z,32.50
2019-04-22T10:33:56.218Z,31.40
2019-04-22T10:36:13.138Z,32.70
2019-04-22T10:38:44.412Z,33.60
2019-04-22T10:41:16.468Z,33.00
2019-04-22T10:43:47.425Z,32.40
2019-04-22T10:46:19.844Z,33.20
2019-04-22T10:48:50.292Z,31.60
2019-04-22T10:51:22.253Z,31.60
2019-04-22T10:53:51.776Z,31.60
2019-04-22T10:56:21.289Z,30.00
2019-04-22T10:58:50.844Z,28.80
2019-04-22T11:01:21.571Z,29.20
2019-04-22T11:03:51.141Z,29.30
2019-04-22T11:06:23.169Z,29.20
2019-04-22T11:08:57.816Z,30.30
2019-04-22T11:11:34.707Z,29.30
2019-04-22T11:13:57.997Z,28.90
2019-04-22T11:16:29.894Z,29.20
2019-04-22T11:18:59.429Z,28.40
2019-04-22T11:21:31.642Z,28.80
2019-04-22T11:24:01.343Z,29.20
2019-04-22T11:26:31.793Z,28.80
2019-04-22T11:29:01.593Z,29.00
2019-04-22T11:31:32.775Z,29.00
2019-04-22T11:34:03.642Z,29.10
2019-04-22T11:36:34.528Z,29.50
2019-04-22T11:39:10.836Z,28.50
2019-04-22T11:41:40.296Z,28.40
2019-04-22T11:44:11.409Z,28.80
2019-04-22T11:46:41.115Z,29.60
2019-04-22T11:49:11.960Z,29.70
2019-04-22T11:51:42.942Z,28.70
2019-04-22T11:54:12.672Z,29.90
2019-04-22T11:56:43.549Z,29.20
2019-04-22T11:59:13.175Z,29.40
2019-04-22T12:01:44.623Z,29.10
2019-04-22T12:04:14.231Z,28.70
2019-04-22T12:06:46.174Z,28.30
2019-04-22T12:09:17.371Z,28.90
2019-04-22T12:11:47.407Z,29.30
2019-04-22T12:14:17.988Z,29.40
2019-04-22T12:16:47.770Z,28.90
2019-04-22T12:19:18.842Z,29.80
2019-04-22T12:21:50.920Z,31.10
2019-04-22T12:24:21.473Z,29.90
2019-04-22T12:26:52.455Z,28.90
2019-04-22T12:29:22.735Z,28.50
2019-04-22T12:31:53.733Z,28.70
2019-04-22T12:34:23.837Z,28.90
2019-04-22T12:36:54.573Z,27.90
2019-04-22T12:39:25.312Z,28.50
2019-04-22T12:41:56.260Z,28.80
2019-04-22T12:44:26.620Z,28.00
2019-04-22T12:47:00.215Z,27.80
2019-04-22T12:49:29.896Z,27.60
2019-04-22T12:52:01.124Z,27.30
2019-04-22T12:54:31.160Z,27.90
2019-04-22T12:57:01.721Z,27.50
2019-04-22T12:59:31.896Z,27.90
2019-04-22T13:02:03.035Z,27.60
2019-04-22T13:04:34.193Z,27.70
2019-04-22T13:07:06.023Z,26.90
2019-04-22T13:09:36.967Z,26.90
2019-04-22T13:12:06.977Z,27.20
2019-04-22T13:14:36.941Z,26.40
2019-04-22T13:17:08.164Z,27.20
2019-04-22T13:19:38.084Z,27.30
2019-04-22T13:22:09.294Z,26.70
2019-04-22T13:24:39.695Z,27.50
2019-04-22T13:27:10.962Z,27.50
2019-04-22T13:29:41.232Z,27.00
2019-04-22T13:32:13.160Z,27.10
2019-04-22T13:34:48.009Z,27.10
2019-04-22T13:37:14.816Z,27.10
2019-04-22T13:39:45.058Z,28.10
2019-04-22T13:42:19.928Z,26.20
2019-04-22T13:44:46.818Z,27.10
2019-04-22T13:47:34.747Z,27.80
2019-04-22T13:50:27.956Z,27.70
2019-04-22T13:52:54.883Z,26.60
2019-04-22T13:55:22.108Z,27.60
2019-04-22T13:57:41.351Z,27.90
2019-04-22T13:59:56.269Z,27.10
2019-04-22T14:02:42.566Z,27.70
2019-04-22T14:05:14.874Z,28.40
2019-04-22T14:07:46.696Z,28.30
2019-04-22T14:10:16.520Z,28.10
2019-04-22T14:12:48.694Z,28.70
2019-04-22T14:15:18.204Z,28.30
2019-04-22T14:17:49.224Z,27.70
2019-04-22T14:20:18.825Z,27.90
2019-04-22T14:22:50.448Z,28.20
2019-04-22T14:25:20.741Z,28.10
2019-04-22T14:28:00.250Z,28.70
2019-04-22T14:30:22.507Z,29.00
2019-04-22T14:32:52.083Z,29.30
2019-04-22T14:35:23.038Z,29.10
2019-04-22T14:37:52.498Z,29.00
2019-04-22T14:40:22.954Z,29.40
2019-04-22T14:43:13.484Z,28.50
2019-04-22T14:46:15.167Z,28.40
2019-04-22T14:48:18.569Z,28.50
2019-04-22T14:50:46.724Z,28.20
2019-04-22T14:53:20.775Z,28.60
2019-04-22T14:55:34.411Z,29.20
2019-04-22T14:58:02.187Z,29.40
2019-04-22T15:00:31.811Z,29.60
2019-04-22T15:03:01.602Z,29.70
2019-04-22T15:05:32.578Z,30.20
2019-04-22T15:08:03.197Z,30.20
2019-04-22T15:10:33.756Z,29.70
2019-04-22T15:13:03.192Z,29.80
2019-04-22T15:15:40.560Z,29.70
2019-04-22T15:18:10.158Z,29.30
2019-04-22T15:20:51.011Z,29.90
2019-04-22T15:23:20.368Z,30.00
2019-04-22T15:25:52.707Z,30.20
2019-04-22T15:28:23.630Z,30.80
2019-04-22T15:30:55.588Z,30.80
2019-04-22T15:33:25.644Z,29.90
2019-04-22T15:35:56.464Z,30.10
2019-04-22T15:38:26.217Z,30.70
2019-04-22T15:40:56.633Z,31.50
2019-04-22T15:43:29.703Z,31.50
2019-04-22T15:46:01.515Z,32.00
2019-04-22T15:48:32.227Z,31.70
2019-04-22T15:51:00.598Z,32.10
2019-04-22T15:53:31.554Z,32.00
2019-04-22T15:56:03.078Z,30.80
2019-04-22T15:58:33.427Z,31.80
2019-04-22T16:01:12.862Z,32.60
2019-04-22T16:03:34.360Z,32.20
2019-04-22T16:06:06.125Z,32.80
2019-04-22T16:08:38.749Z,33.40
2019-04-22T16:11:09.574Z,33.10
2019-04-22T16:13:40.124Z,33.20
2019-04-22T16:16:12.241Z,33.50
2019-04-22T16:18:42.184Z,32.90
2019-04-22T16:21:14.338Z,32.50
2019-04-22T16:24:04.533Z,32.80
2019-04-22T16:26:40.186Z,32.80
2019-04-22T16:29:11.694Z,32.50
2019-04-22T16:31:43.040Z,32.60
2019-04-22T16:34:13.310Z,32.60
2019-04-22T16:36:44.885Z,32.20
2019-04-22T16:39:15.266Z,31.90
2019-04-22T16:41:46.706Z,32.50
2019-04-22T16:44:16.494Z,32.30
2019-04-22T16:46:47.741Z,32.40
2019-04-22T16:49:17.183Z,32.70
2019-04-22T16:51:47.913Z,33.10
2019-04-22T16:54:17.965Z,33.50
2019-04-22T16:56:50.080Z,33.70
2019-04-22T16:59:19.604Z,33.60
2019-04-22T17:02:06.619Z,33.70
2019-04-22T17:04:55.920Z,33.90
2019-04-22T17:07:26.473Z,33.90
2019-04-22T17:09:57.496Z,34.50
2019-04-22T17:12:38.724Z,34.70
2019-04-22T17:15:03.906Z,34.80
2019-04-22T17:17:30.675Z,35.60
2019-04-22T17:20:00.311Z,36.10
2019-04-22T17:22:31.456Z,36.40
2019-04-22T17:25:02.515Z,36.80
2019-04-22T17:27:34.597Z,36.90
2019-04-22T17:30:08.500Z,36.90
2019-04-22T17:32:40.140Z,36.30
2019-04-22T17:35:10.517Z,36.20
2019-04-22T17:37:42.791Z,36.10
2019-04-22T17:40:30.393Z,36.20
2019-04-22T17:43:07.935Z,36.50
2019-04-22T17:45:41.909Z,37.00
2019-04-22T17:48:30.878Z,37.60
2019-04-22T17:51:11.315Z,37.80
2019-04-22T17:53:40.202Z,38.10
2019-04-22T17:56:08.963Z,38.20
2019-04-22T17:58:42.435Z,38.10
2019-04-22T18:01:14.631Z,38.10
2019-04-22T18:03:32.694Z,38.10
2019-04-22T18:06:00.477Z,38.30
2019-04-22T18:08:45.671Z,38.30
2019-04-22T18:11:30.562Z,38.30
2019-04-22T18:13:51.547Z,38.20
2019-04-22T18:16:26.218Z,38.30
2019-04-22T18:18:52.905Z,38.20
2019-04-22T18:21:23.185Z,38.30
2019-04-22T18:23:47.753Z,38.60
2019-04-22T18:26:24.399Z,38.50
2019-04-22T18:29:02.459Z,38.50
2019-04-22T18:31:21.773Z,38.90
2019-04-22T18:33:55.612Z,38.70
2019-04-22T18:36:29.185Z,38.90
2019-04-22T18:39:11.448Z,38.90
2019-04-22T18:41:34.093Z,39.00
2019-04-22T18:44:09.977Z,39.10
2019-04-22T18:46:36.538Z,39.10
2019-04-22T18:49:06.880Z,39.20
2019-04-22T18:51:57.269Z,39.50
2019-04-22T18:54:45.681Z,39.50
2019-04-22T18:57:15.925Z,39.70
2019-04-22T18:59:36.158Z,39.40
2019-04-22T19:02:13.489Z,39.60
2019-04-22T19:04:44.699Z,39.70
2019-04-22T19:07:38.467Z,39.60
2019-04-22T19:10:13.337Z,39.30
2019-04-22T19:12:33.949Z,39.10
2019-04-22T19:15:03.937Z,39.70
2019-04-22T19:17:47.757Z,39.10
2019-04-22T19:20:08.295Z,38.70
2019-04-22T19:22:45.465Z,38.60
2019-04-22T19:24:59.903Z,38.20
2019-04-22T19:27:36.012Z,37.90
2019-04-22T19:30:12.344Z,37.80
2019-04-22T19:32:45.145Z,37.50
2019-04-22T19:35:11.499Z,37.50
2019-04-22T19:37:39.830Z,37.50
2019-04-22T19:40:20.585Z,37.70
2019-04-22T19:42:52.642Z,38.00
2019-04-22T19:45:16.031Z,38.20
2019-04-22T19:48:01.833Z,38.20
2019-04-22T19:50:22.794Z,38.10
2019-04-22T19:52:51.368Z,37.90
2019-04-22T19:55:23.815Z,38.20
2019-04-22T19:57:54.777Z,38.30
2019-04-22T20:00:36.497Z,38.40
2019-04-22T20:03:50.881Z,38.60
2019-04-22T20:06:05.853Z,38.70
2019-04-22T20:08:38.153Z,38.90
2019-04-22T20:11:12.537Z,38.90
2019-04-22T20:13:41.431Z,39.10
2019-04-22T20:16:03.527Z,39.20
2019-04-22T20:18:48.686Z,39.40
2019-04-22T20:21:18.339Z,39.60
2019-04-22T20:23:39.077Z,39.90
2019-04-22T20:26:13.591Z,40.00
2019-04-22T20:28:49.395Z,40.20
2019-04-22T20:31:18.604Z,40.40
2019-04-22T20:33:56.113Z,40.60
2019-04-22T20:36:44.711Z,40.80
2019-04-22T20:38:49.252Z,41.20
2019-04-22T20:41:19.051Z,41.60
2019-04-22T20:43:56.562Z,41.90
2019-04-22T20:46:26.658Z,42.20
2019-04-22T20:49:01.774Z,42.80
2019-04-22T20:51:36.262Z,43.30
2019-04-22T20:54:02.735Z,43.50
2019-04-22T20:56:31.490Z,44.00
2019-04-22T20:59:02.107Z,44.20
2019-04-22T21:01:41.633Z,44.60
2019-04-22T21:03:54.555Z,44.60
2019-04-22T21:06:36.947Z,44.90
2019-04-22T21:09:12.105Z,45.50
2019-04-22T21:11:38.423Z,46.20
2019-04-22T21:14:12.015Z,46.30
2019-04-22T21:16:50.170Z,46.70
2019-04-22T21:19:21.781Z,47.00
2019-04-22T21:21:49.984Z,47.30
2019-04-22T21:24:18.219Z,47.30
2019-04-22T21:26:47.087Z,47.80
2019-04-22T21:29:15.877Z,48.30
2019-04-22T21:31:54.579Z,48.70
2019-04-22T21:34:26.250Z,49.10
2019-04-22T21:37:04.315Z,49.40
2019-04-22T21:39:26.372Z,49.60
2019-04-22T21:41:58.897Z,49.70
2019-04-22T21:44:31.393Z,50.20
2019-04-22T21:47:10.439Z,50.70
2019-04-22T21:49:35.489Z,50.90
2019-04-22T21:52:07.448Z,50.80
2019-04-22T21:55:00.924Z,51.20
2019-04-22T21:57:28.296Z,51.40
2019-04-22T22:00:03.539Z,51.40
2019-04-22T22:02:51.850Z,51.90
2019-04-22T22:05:00.157Z,52.20
2019-04-22T22:07:21.997Z,52.60
2019-04-22T22:10:09.163Z,52.90
2019-04-22T22:12:40.880Z,53.20
2019-04-22T22:15:16.529Z,53.40
2019-04-22T22:17:42.298Z,53.70
2019-04-22T22:20:13.343Z,54.00
2019-04-22T22:22:51.962Z,54.40
2019-04-22T22:25:19.716Z,54.70
2019-04-22T22:27:44.788Z,54.80
2019-04-22T22:30:41.573Z,55.20
2019-04-22T22:32:55.204Z,55.40
2019-04-22T22:35:27.881Z,55.80
2019-04-22T22:37:57.619Z,56.30
2019-04-22T22:40:15.783Z,57.20
2019-04-22T22:42:46.276Z,56.60
2019-04-22T22:45:22.462Z,57.40
2019-04-22T22:48:18.975Z,57.90
2019-04-22T22:50:40.290Z,58.40
2019-04-22T22:53:20.709Z,58.80
2019-04-22T22:55:39.803Z,59.30
2019-04-22T22:58:16.407Z,59.10
2019-04-22T23:00:39.350Z,60.10
2019-04-22T23:03:40.224Z,60.60
2019-04-22T23:05:55.402Z,61.30
2019-04-22T23:08:27.781Z,62.20
2019-04-22T23:13:26.145Z,63.70
2019-04-22T23:15:50.882Z,64.60
2019-04-22T23:18:07.858Z,65.90
2019-04-22T23:20:43.248Z,66.90
2019-04-22T23:23:29.755Z,67.60
2019-04-22T23:26:02.654Z,68.10
2019-04-22T23:28:40.019Z,69.30
2019-04-22T23:31:18.040Z,71.20
2019-04-22T23:34:01.174Z,72.90
2019-04-22T23:36:30.633Z,73.80
2019-04-22T23:39:13.479Z,74.60
2019-04-22T23:41:45.808Z,76.40
2019-04-22T23:44:15.969Z,77.80
2019-04-22T23:46:41.412Z,79.60
2019-04-22T23:49:11.834Z,82.20
2019-04-22T23:51:55.646Z,83.00
2019-04-22T23:54:24.433Z,85.40
2019-04-22T23:56:48.007Z,87.00
2019-04-22T23:59:41.482Z,88.30
